createdAt,value
2023-01-17T00:00:56.617Z,75.40
2023-01-17T00:02:01.456Z,75.40
2023-01-17T00:03:04.742Z,75.37
2023-01-17T00:04:26.440Z,75.20
2023-01-17T00:05:48.289Z,75.29
2023-01-17T00:07:09.725Z,75.40
2023-01-17T00:08:31.566Z,75.91
2023-01-17T00:09:53.003Z,75.66
2023-01-17T00:10:58.350Z,75.62
2023-01-17T00:12:05.631Z,75.47
2023-01-17T00:13:08.607Z,75.27
2023-01-17T00:14:11.601Z,75.09
2023-01-17T00:15:16.889Z,75.31
2023-01-17T00:16:20.052Z,75.29
2023-01-17T00:17:24.970Z,75.16
2023-01-17T00:18:27.889Z,75.12
2023-01-17T00:19:49.863Z,75.18
2023-01-17T00:21:11.343Z,75.32
2023-01-17T00:22:49.651Z,75.29
2023-01-17T00:24:24.811Z,75.38
2023-01-17T00:25:55.904Z,75.97
2023-01-17T00:27:14.400Z,75.68
2023-01-17T00:28:18.321Z,75.43
2023-01-17T00:29:21.225Z,75.25
2023-01-17T00:30:24.523Z,75.17
2023-01-17T00:31:27.655Z,74.93
2023-01-17T00:32:30.555Z,74.85
2023-01-17T00:33:34.180Z,75.09
2023-01-17T00:34:37.346Z,74.97
2023-01-17T00:35:40.539Z,74.79
2023-01-17T00:36:43.485Z,74.68
2023-01-17T00:37:46.646Z,74.72
2023-01-17T00:38:49.833Z,74.73
2023-01-17T00:39:52.769Z,74.88
2023-01-17T00:41:03.039Z,74.90
2023-01-17T00:42:06.183Z,75.39
2023-01-17T00:43:29.506Z,75.13
2023-01-17T00:44:51.423Z,75.07
2023-01-17T00:46:14.503Z,75.12
2023-01-17T00:47:35.945Z,75.36
2023-01-17T00:48:58.405Z,75.66
2023-01-17T00:50:20.058Z,75.77
2023-01-17T00:51:42.946Z,75.74
2023-01-17T00:53:04.446Z,75.65
2023-01-17T00:54:27.275Z,75.58
2023-01-17T00:55:48.844Z,75.54
2023-01-17T00:57:11.136Z,75.76
2023-01-17T00:58:32.789Z,75.71
2023-01-17T00:59:54.644Z,75.81
2023-01-17T01:01:16.713Z,75.31
2023-01-17T01:02:39.006Z,75.46
2023-01-17T01:04:00.757Z,75.72
2023-01-17T01:05:23.130Z,75.70
2023-01-17T01:06:44.794Z,75.85
2023-01-17T01:08:06.555Z,75.48
2023-01-17T01:09:28.298Z,75.73
2023-01-17T01:10:51.652Z,76.01
2023-01-17T01:12:13.267Z,75.85
2023-01-17T01:13:35.078Z,75.91
2023-01-17T01:14:57.565Z,75.71
2023-01-17T01:16:20.398Z,75.88
2023-01-17T01:17:42.426Z,75.79
2023-01-17T01:19:05.005Z,75.97
2023-01-17T01:20:27.585Z,75.63
2023-01-17T01:21:49.776Z,75.80
2023-01-17T01:23:11.601Z,75.66
2023-01-17T01:24:34.902Z,75.95
2023-01-17T01:25:57.041Z,76.05
2023-01-17T01:27:18.824Z,76.00
2023-01-17T01:28:41.036Z,75.96
2023-01-17T01:30:02.823Z,75.77
2023-01-17T01:31:25.305Z,75.89
2023-01-17T01:32:47.161Z,75.97
2023-01-17T01:33:52.242Z,75.78
2023-01-17T01:34:55.387Z,75.63
2023-01-17T01:35:58.314Z,75.32
2023-01-17T01:37:01.335Z,75.20
2023-01-17T01:38:04.767Z,75.16
2023-01-17T01:39:08.705Z,75.22
2023-01-17T01:40:12.800Z,75.25
2023-01-17T01:41:16.060Z,75.27
2023-01-17T01:42:18.959Z,75.39
2023-01-17T01:43:46.046Z,75.22
2023-01-17T01:44:54.287Z,75.30
2023-01-17T01:45:58.838Z,75.13
2023-01-17T01:47:02.606Z,75.01
2023-01-17T01:48:25.291Z,75.15
2023-01-17T01:49:29.658Z,75.49
2023-01-17T01:50:37.035Z,75.38
2023-01-17T01:51:43.802Z,75.43
2023-01-17T01:52:52.608Z,75.34
2023-01-17T01:54:03.736Z,75.11
2023-01-17T01:55:16.593Z,75.00
2023-01-17T01:56:26.208Z,75.10
2023-01-17T01:57:34.665Z,75.23
2023-01-17T01:58:41.652Z,75.38
2023-01-17T01:59:49.580Z,75.29
2023-01-17T02:00:52.984Z,75.43
2023-01-17T02:01:59.719Z,75.31
2023-01-17T02:03:08.023Z,75.20
2023-01-17T02:04:12.961Z,75.38
2023-01-17T02:05:20.585Z,75.27
2023-01-17T02:06:35.599Z,75.39
2023-01-17T02:07:45.702Z,75.50
2023-01-17T02:08:49.076Z,75.52
2023-01-17T02:09:52.988Z,75.49
2023-01-17T02:10:56.414Z,75.47
2023-01-17T02:11:59.440Z,75.39
2023-01-17T02:13:02.889Z,75.40
2023-01-17T02:14:06.503Z,75.44
2023-01-17T02:15:10.082Z,75.53
2023-01-17T02:16:31.897Z,75.33
2023-01-17T02:17:50.332Z,75.38
2023-01-17T02:19:15.367Z,75.34
2023-01-17T02:20:33.896Z,75.80
2023-01-17T02:21:51.709Z,75.21
2023-01-17T02:23:12.749Z,75.36
2023-01-17T02:24:30.928Z,75.23
2023-01-17T02:25:43.579Z,75.23
2023-01-17T02:27:07.123Z,75.32
2023-01-17T02:28:46.146Z,75.20
2023-01-17T02:32:35.226Z,76.30
2023-01-17T02:33:55.468Z,76.48
2023-01-17T02:35:28.312Z,75.93
2023-01-17T02:36:42.078Z,76.42
2023-01-17T02:38:09.436Z,76.04
2023-01-17T02:39:20.408Z,76.50
2023-01-17T02:40:29.646Z,75.80
2023-01-17T02:41:39.767Z,75.72
2023-01-17T02:42:50.246Z,75.88
2023-01-17T02:43:54.073Z,76.03
2023-01-17T02:44:57.442Z,75.83
2023-01-17T02:46:00.681Z,75.77
2023-01-17T02:47:22.110Z,76.21
2023-01-17T02:48:30.425Z,76.61
2023-01-17T02:49:33.650Z,76.34
2023-01-17T02:50:51.124Z,76.28
2023-01-17T02:51:56.797Z,76.71
2023-01-17T02:53:52.974Z,76.55
2023-01-17T02:55:20.711Z,77.09
2023-01-17T02:56:54.445Z,77.41
2023-01-17T02:58:16.856Z,77.08
2023-01-17T02:59:52.774Z,76.84
2023-01-17T03:01:35.153Z,77.13
2023-01-17T03:03:16.430Z,77.37
2023-01-17T03:04:31.409Z,77.44
2023-01-17T03:05:44.306Z,77.21
2023-01-17T03:06:55.925Z,76.91
2023-01-17T03:08:01.522Z,77.24
2023-01-17T03:09:05.998Z,76.50
2023-01-17T03:10:11.589Z,76.70
2023-01-17T03:11:15.183Z,76.56
2023-01-17T03:12:20.527Z,76.61
2023-01-17T03:13:23.934Z,77.38
2023-01-17T03:14:30.103Z,77.25
2023-01-17T03:15:33.099Z,77.52
2023-01-17T03:16:36.222Z,77.43
2023-01-17T03:17:42.806Z,77.52
2023-01-17T03:18:46.006Z,77.54
2023-01-17T03:19:48.962Z,77.32
2023-01-17T03:20:52.762Z,77.54
2023-01-17T03:21:55.758Z,77.57
2023-01-17T03:22:58.674Z,77.61
2023-01-17T03:24:03.192Z,77.87
2023-01-17T03:25:06.882Z,77.49
2023-01-17T03:26:09.914Z,77.59
2023-01-17T03:27:12.835Z,77.72
2023-01-17T03:28:15.848Z,77.76
2023-01-17T03:29:19.175Z,77.96
2023-01-17T03:30:23.202Z,78.27
2023-01-17T03:31:26.345Z,78.06
2023-01-17T03:32:29.888Z,78.25
2023-01-17T03:33:33.087Z,78.31
2023-01-17T03:34:36.300Z,78.39
2023-01-17T03:35:40.813Z,78.29
2023-01-17T03:36:46.022Z,78.14
2023-01-17T03:37:49.064Z,78.23
2023-01-17T03:38:52.152Z,78.27
2023-01-17T03:39:55.144Z,78.03
2023-01-17T03:40:58.353Z,78.43
2023-01-17T03:42:01.224Z,78.50
2023-01-17T03:43:04.222Z,78.30
2023-01-17T03:44:07.221Z,78.55
2023-01-17T03:45:10.818Z,78.43
2023-01-17T03:46:23.166Z,78.24
2023-01-17T03:47:26.160Z,78.70
2023-01-17T03:48:29.664Z,78.95
2023-01-17T03:49:32.611Z,78.78
2023-01-17T03:50:35.802Z,78.52
2023-01-17T03:51:38.791Z,78.51
2023-01-17T03:52:41.695Z,78.68
2023-01-17T03:53:47.032Z,78.43
2023-01-17T03:54:50.106Z,78.75
2023-01-17T03:55:53.175Z,78.87
2023-01-17T03:56:56.107Z,78.64
2023-01-17T03:57:59.026Z,78.69
2023-01-17T03:59:02.133Z,79.00
2023-01-17T04:00:05.777Z,78.84
2023-01-17T04:01:10.136Z,78.42
2023-01-17T04:02:13.355Z,78.55
2023-01-17T04:03:16.433Z,78.52
2023-01-17T04:04:19.379Z,78.63
2023-01-17T04:05:22.388Z,79.08
2023-01-17T04:06:25.427Z,79.05
2023-01-17T04:07:28.313Z,79.05
2023-01-17T04:08:31.447Z,78.94
2023-01-17T04:09:35.483Z,78.80
2023-01-17T04:10:38.390Z,78.90
2023-01-17T04:11:41.630Z,78.95
2023-01-17T04:12:44.627Z,78.82
2023-01-17T04:13:47.567Z,78.80
2023-01-17T04:14:50.514Z,79.00
2023-01-17T04:15:53.654Z,78.89
2023-01-17T04:16:57.422Z,79.10
2023-01-17T04:18:01.019Z,78.88
2023-01-17T04:19:04.033Z,78.95
2023-01-17T04:20:07.751Z,78.91
2023-01-17T04:21:10.818Z,78.95
2023-01-17T04:22:14.249Z,79.07
2023-01-17T04:23:17.829Z,78.98
2023-01-17T04:24:20.774Z,79.09
2023-01-17T04:25:25.802Z,79.26
2023-01-17T04:26:28.720Z,79.00
2023-01-17T04:27:31.880Z,79.17
2023-01-17T04:28:34.841Z,79.25
2023-01-17T04:29:37.837Z,78.97
2023-01-17T04:30:40.954Z,79.13
2023-01-17T04:31:44.081Z,79.36
2023-01-17T04:32:47.415Z,79.31
2023-01-17T04:33:50.334Z,79.55
2023-01-17T04:34:53.388Z,79.18
2023-01-17T04:35:56.398Z,78.96
2023-01-17T04:36:59.411Z,79.30
2023-01-17T04:38:03.313Z,79.29
2023-01-17T04:39:06.423Z,79.19
2023-01-17T04:40:11.342Z,79.36
2023-01-17T04:41:14.319Z,79.26
2023-01-17T04:42:17.291Z,79.32
2023-01-17T04:43:20.596Z,79.58
2023-01-17T04:44:23.590Z,79.35
2023-01-17T04:45:26.611Z,79.42
2023-01-17T04:46:29.646Z,79.26
2023-01-17T04:47:34.563Z,79.22
2023-01-17T04:48:38.321Z,79.39
2023-01-17T04:49:42.779Z,79.71
2023-01-17T04:50:47.120Z,79.70
2023-01-17T04:51:50.055Z,79.68
2023-01-17T04:52:52.973Z,79.64
2023-01-17T04:53:56.312Z,79.54
2023-01-17T04:54:59.300Z,79.50
2023-01-17T04:56:03.087Z,79.60
2023-01-17T04:57:06.100Z,79.44
2023-01-17T04:58:09.028Z,79.52
2023-01-17T04:59:12.093Z,79.48
2023-01-17T05:00:15.839Z,79.57
2023-01-17T05:01:18.855Z,79.38
2023-01-17T05:02:21.990Z,79.49
2023-01-17T05:03:25.253Z,79.44
2023-01-17T05:04:28.566Z,79.37
2023-01-17T05:05:31.506Z,79.71
2023-01-17T05:06:34.528Z,79.69
2023-01-17T05:07:37.414Z,79.43
2023-01-17T05:08:40.337Z,79.64
2023-01-17T05:09:43.919Z,79.58
2023-01-17T05:10:47.308Z,79.45
2023-01-17T05:11:50.500Z,79.76
2023-01-17T05:12:58.653Z,79.67
2023-01-17T05:14:01.643Z,79.36
2023-01-17T05:15:05.293Z,79.47
2023-01-17T05:16:08.343Z,79.67
2023-01-17T05:17:11.458Z,79.63
2023-01-17T05:18:16.621Z,79.59
2023-01-17T05:19:21.033Z,79.40
2023-01-17T05:20:26.226Z,79.46
2023-01-17T05:21:30.568Z,79.52
2023-01-17T05:22:33.476Z,79.48
2023-01-17T05:23:36.591Z,79.73
2023-01-17T05:24:40.026Z,79.71
2023-01-17T05:25:44.440Z,79.67
2023-01-17T05:26:54.720Z,79.65
2023-01-17T05:28:00.307Z,79.42
2023-01-17T05:29:03.360Z,79.61
2023-01-17T05:30:06.939Z,79.87
2023-01-17T05:31:10.170Z,79.82
2023-01-17T05:32:13.207Z,79.62
2023-01-17T05:33:16.233Z,79.73
2023-01-17T05:34:19.300Z,79.75
2023-01-17T05:35:25.458Z,79.58
2023-01-17T05:36:28.503Z,79.69
2023-01-17T05:37:31.426Z,79.61
2023-01-17T05:38:34.841Z,79.63
2023-01-17T05:39:37.817Z,79.82
2023-01-17T05:40:40.971Z,79.84
2023-01-17T05:41:44.461Z,79.78
2023-01-17T05:42:48.823Z,79.60
2023-01-17T05:43:51.860Z,79.52
2023-01-17T05:44:55.192Z,79.52
2023-01-17T05:45:58.305Z,79.53
2023-01-17T05:47:01.404Z,79.66
2023-01-17T05:48:04.887Z,79.65
2023-01-17T05:49:07.869Z,79.56
2023-01-17T05:50:12.983Z,79.67
2023-01-17T05:51:15.963Z,79.56
2023-01-17T05:52:20.588Z,79.57
2023-01-17T05:53:23.563Z,79.59
2023-01-17T05:54:26.617Z,79.68
2023-01-17T05:55:30.594Z,79.67
2023-01-17T05:56:34.160Z,79.58
2023-01-17T05:57:37.396Z,79.32
2023-01-17T05:58:40.367Z,79.33
2023-01-17T05:59:43.313Z,79.32
2023-01-17T06:00:46.982Z,79.30
2023-01-17T06:01:50.195Z,79.32
2023-01-17T06:02:54.957Z,79.32
2023-01-17T06:03:57.981Z,79.21
2023-01-17T06:05:03.341Z,79.05
2023-01-17T06:06:06.804Z,79.14
2023-01-17T06:07:10.018Z,79.09
2023-01-17T06:08:13.936Z,79.07
2023-01-17T06:09:16.880Z,79.12
2023-01-17T06:10:21.779Z,79.16
2023-01-17T06:11:24.861Z,79.03
2023-01-17T06:12:27.791Z,78.86
2023-01-17T06:13:30.818Z,78.93
2023-01-17T06:14:33.784Z,78.90
2023-01-17T06:15:38.343Z,78.82
2023-01-17T06:16:41.504Z,78.95
2023-01-17T06:17:44.534Z,78.86
2023-01-17T06:18:47.653Z,78.78
2023-01-17T06:19:50.571Z,78.79
2023-01-17T06:20:56.972Z,78.71
2023-01-17T06:21:59.991Z,78.81
2023-01-17T06:23:05.077Z,78.70
2023-01-17T06:24:08.222Z,78.70
2023-01-17T06:25:11.309Z,78.40
2023-01-17T06:26:14.246Z,78.45
2023-01-17T06:27:17.421Z,78.47
2023-01-17T06:28:21.899Z,78.62
2023-01-17T06:29:25.037Z,78.48
2023-01-17T06:30:28.185Z,78.46
2023-01-17T06:31:31.156Z,78.42
2023-01-17T06:32:34.289Z,78.57
2023-01-17T06:33:37.427Z,78.65
2023-01-17T06:34:41.277Z,78.66
2023-01-17T06:35:49.422Z,78.82
2023-01-17T06:36:52.443Z,78.86
2023-01-17T06:37:55.856Z,78.91
2023-01-17T06:38:58.974Z,78.68
2023-01-17T06:40:02.049Z,78.67
2023-01-17T06:41:05.908Z,78.92
2023-01-17T06:42:08.874Z,78.84
2023-01-17T06:43:11.978Z,78.77
2023-01-17T06:44:15.028Z,78.76
2023-01-17T06:45:19.155Z,78.94
2023-01-17T06:46:23.359Z,78.91
2023-01-17T06:47:26.439Z,78.74
2023-01-17T06:48:29.674Z,78.81
2023-01-17T06:49:33.191Z,78.65
2023-01-17T06:50:36.332Z,78.68
2023-01-17T06:51:39.444Z,78.75
2023-01-17T06:52:43.133Z,79.01
2023-01-17T06:53:48.580Z,78.95
2023-01-17T06:54:51.543Z,78.93
2023-01-17T06:55:57.806Z,78.79
2023-01-17T06:57:00.716Z,78.77
2023-01-17T06:58:03.724Z,78.67
2023-01-17T06:59:06.884Z,78.69
2023-01-17T07:00:10.802Z,78.74
2023-01-17T07:01:14.156Z,78.98
2023-01-17T07:02:17.416Z,78.85
2023-01-17T07:03:23.612Z,78.79
2023-01-17T07:04:26.660Z,78.96
2023-01-17T07:05:29.739Z,79.03
2023-01-17T07:06:35.187Z,78.79
2023-01-17T07:07:38.116Z,78.74
2023-01-17T07:08:41.023Z,78.69
2023-01-17T07:09:44.124Z,78.74
2023-01-17T07:10:47.999Z,78.78
2023-01-17T07:11:52.780Z,78.80
2023-01-17T07:13:00.774Z,78.86
2023-01-17T07:14:03.805Z,78.93
2023-01-17T07:15:07.802Z,78.83
2023-01-17T07:16:10.826Z,78.80
2023-01-17T07:17:13.828Z,78.92
2023-01-17T07:18:20.644Z,78.67
2023-01-17T07:19:24.480Z,78.64
2023-01-17T07:20:27.708Z,78.62
2023-01-17T07:21:30.848Z,78.87
2023-01-17T07:22:33.926Z,79.01
2023-01-17T07:23:36.943Z,79.02
2023-01-17T07:24:40.026Z,78.91
2023-01-17T07:25:43.103Z,78.68
2023-01-17T07:26:50.611Z,78.62
2023-01-17T07:27:55.163Z,78.65
2023-01-17T07:28:58.869Z,78.72
2023-01-17T07:30:01.929Z,78.99
2023-01-17T07:31:08.216Z,78.86
2023-01-17T07:32:11.273Z,78.84
2023-01-17T07:33:14.687Z,78.95
2023-01-17T07:34:17.702Z,79.16
2023-01-17T07:35:21.689Z,79.07
2023-01-17T07:36:24.758Z,79.11
2023-01-17T07:37:27.776Z,78.98
2023-01-17T07:38:30.793Z,78.94
2023-01-17T07:39:34.594Z,79.02
2023-01-17T07:40:42.010Z,79.08
2023-01-17T07:41:46.646Z,79.03
2023-01-17T07:42:49.605Z,79.03
2023-01-17T07:43:52.697Z,79.10
2023-01-17T07:44:56.184Z,79.09
2023-01-17T07:46:01.306Z,79.01
2023-01-17T07:47:05.014Z,78.94
2023-01-17T07:48:08.093Z,79.19
2023-01-17T07:49:11.156Z,79.03
2023-01-17T07:50:14.131Z,79.19
2023-01-17T07:51:18.020Z,79.24
2023-01-17T07:52:21.500Z,79.24
2023-01-17T07:53:27.102Z,79.01
2023-01-17T07:54:30.307Z,79.07
2023-01-17T07:55:33.231Z,79.17
2023-01-17T07:56:36.144Z,79.22
2023-01-17T07:57:39.059Z,79.14
2023-01-17T07:58:43.011Z,79.25
2023-01-17T07:59:46.634Z,79.16
2023-01-17T08:00:49.637Z,79.20
2023-01-17T08:01:53.145Z,79.28
2023-01-17T08:02:57.698Z,79.25
2023-01-17T08:04:00.903Z,79.21
2023-01-17T08:05:04.441Z,79.16
2023-01-17T08:06:20.146Z,79.08
2023-01-17T08:07:23.134Z,79.29
2023-01-17T08:08:26.407Z,79.16
2023-01-17T08:09:29.723Z,79.25
2023-01-17T08:10:32.949Z,79.24
2023-01-17T08:11:35.895Z,79.28
2023-01-17T08:12:38.853Z,79.17
2023-01-17T08:13:41.951Z,79.24
2023-01-17T08:14:45.339Z,79.12
2023-01-17T08:15:50.004Z,79.04
2023-01-17T08:16:53.308Z,79.19
2023-01-17T08:17:57.720Z,78.92
2023-01-17T08:19:00.813Z,79.00
2023-01-17T08:20:06.141Z,78.98
2023-01-17T08:21:13.450Z,79.01
2023-01-17T08:22:16.329Z,78.91
2023-01-17T08:23:19.267Z,78.89
2023-01-17T08:24:22.223Z,79.01
2023-01-17T08:25:26.630Z,79.11
2023-01-17T08:26:29.815Z,78.96
2023-01-17T08:27:34.533Z,78.89
2023-01-17T08:28:38.369Z,79.08
2023-01-17T08:29:47.103Z,79.05
2023-01-17T08:30:50.113Z,78.97
2023-01-17T08:31:54.184Z,78.90
2023-01-17T08:32:57.165Z,78.84
2023-01-17T08:34:00.436Z,78.80
2023-01-17T08:35:03.443Z,78.89
2023-01-17T08:36:06.447Z,78.90
2023-01-17T08:37:09.726Z,78.79
2023-01-17T08:38:12.889Z,78.71
2023-01-17T08:39:15.826Z,78.72
2023-01-17T08:40:19.767Z,78.76
2023-01-17T08:41:24.465Z,78.77
2023-01-17T08:42:27.582Z,78.63
2023-01-17T08:43:30.541Z,78.63
2023-01-17T08:44:33.455Z,78.51
2023-01-17T08:45:36.425Z,78.51
2023-01-17T08:46:39.874Z,78.58
2023-01-17T08:47:43.084Z,78.53
2023-01-17T08:48:46.477Z,78.48
2023-01-17T08:49:49.378Z,78.41
2023-01-17T08:50:52.475Z,78.55
2023-01-17T08:51:55.787Z,78.55
2023-01-17T08:53:01.057Z,78.52
2023-01-17T08:54:04.566Z,78.33
2023-01-17T08:55:10.424Z,78.15
2023-01-17T08:56:13.458Z,78.18
2023-01-17T08:57:16.422Z,78.07
2023-01-17T08:58:19.534Z,78.01
2023-01-17T08:59:22.526Z,77.86
2023-01-17T09:00:27.097Z,77.98
2023-01-17T09:01:30.541Z,78.19
2023-01-17T09:02:34.025Z,78.26
2023-01-17T09:03:40.710Z,78.32
2023-01-17T09:04:48.434Z,78.25
2023-01-17T09:06:20.312Z,78.21
2023-01-17T09:07:24.419Z,78.46
2023-01-17T09:08:27.742Z,78.00
2023-01-17T09:09:30.887Z,77.67
2023-01-17T09:10:33.864Z,77.79
2023-01-17T09:11:36.971Z,77.89
2023-01-17T09:12:40.464Z,78.14
2023-01-17T09:13:44.104Z,78.18
2023-01-17T09:14:47.299Z,78.01
2023-01-17T09:15:50.601Z,77.99
2023-01-17T09:16:53.573Z,78.03
2023-01-17T09:17:57.352Z,77.90
2023-01-17T09:19:00.839Z,77.81
2023-01-17T09:20:04.344Z,77.91
2023-01-17T09:21:16.146Z,77.83
2023-01-17T09:22:19.089Z,78.01
2023-01-17T09:23:23.046Z,78.18
2023-01-17T09:24:26.302Z,77.99
2023-01-17T09:25:29.517Z,78.01
2023-01-17T09:26:32.550Z,77.93
2023-01-17T09:27:35.641Z,77.86
2023-01-17T09:28:41.141Z,77.84
2023-01-17T09:29:44.530Z,77.73
2023-01-17T09:30:47.886Z,77.83
2023-01-17T09:31:51.063Z,77.79
2023-01-17T09:32:55.067Z,77.80
2023-01-17T09:33:59.295Z,77.72
2023-01-17T09:35:05.379Z,77.42
2023-01-17T09:36:10.391Z,77.20
2023-01-17T09:37:13.341Z,76.91
2023-01-17T09:38:16.668Z,76.98
2023-01-17T09:39:19.764Z,77.14
2023-01-17T09:40:25.575Z,77.01
2023-01-17T09:41:35.060Z,77.15
2023-01-17T09:42:40.554Z,77.16
2023-01-17T09:43:55.450Z,77.14
2023-01-17T09:44:59.468Z,77.16
2023-01-17T09:46:03.102Z,76.99
2023-01-17T09:47:18.508Z,76.91
2023-01-17T09:48:37.597Z,77.10
2023-01-17T09:49:45.993Z,76.73
2023-01-17T09:50:58.901Z,76.71
2023-01-17T09:52:02.386Z,76.80
2023-01-17T09:53:12.619Z,76.63
2023-01-17T09:54:22.846Z,76.41
2023-01-17T09:55:26.617Z,76.32
2023-01-17T09:56:36.445Z,76.64
2023-01-17T09:57:48.435Z,76.55
2023-01-17T09:59:20.021Z,76.71
2023-01-17T10:00:32.215Z,76.98
2023-01-17T10:01:46.106Z,76.89
2023-01-17T10:03:23.857Z,76.54
2023-01-17T10:04:39.417Z,76.55
2023-01-17T10:06:10.169Z,75.96
2023-01-17T10:07:32.432Z,76.48
2023-01-17T10:08:55.011Z,76.63
2023-01-17T10:10:24.377Z,76.40
2023-01-17T10:11:55.976Z,76.49
2023-01-17T10:13:14.299Z,76.72
2023-01-17T10:14:49.499Z,76.37
2023-01-17T10:16:17.290Z,76.20
2023-01-17T10:17:36.503Z,75.56
2023-01-17T10:18:57.721Z,75.45
2023-01-17T10:20:35.273Z,75.63
2023-01-17T10:22:02.570Z,75.69
2023-01-17T10:23:25.356Z,75.31
2023-01-17T10:25:01.472Z,74.78
2023-01-17T10:26:23.917Z,74.95
2023-01-17T10:27:57.018Z,74.65
2023-01-17T10:29:04.684Z,74.63
2023-01-17T10:30:21.370Z,74.85
2023-01-17T10:31:28.791Z,74.81
2023-01-17T10:32:33.431Z,74.50
2023-01-17T10:33:48.965Z,74.10
2023-01-17T10:34:53.406Z,74.39
2023-01-17T10:36:05.027Z,74.33
2023-01-17T10:37:20.688Z,74.67
2023-01-17T10:38:35.903Z,74.69
2023-01-17T10:39:39.414Z,74.69
2023-01-17T10:40:54.846Z,74.52
2023-01-17T10:42:13.442Z,74.43
2023-01-17T10:43:47.687Z,74.56
2023-01-17T10:45:05.505Z,74.36
2023-01-17T10:46:16.119Z,74.41
2023-01-17T10:47:24.464Z,74.19
2023-01-17T10:48:43.834Z,74.10
2023-01-17T10:49:50.205Z,74.14
2023-01-17T10:51:02.046Z,73.88
2023-01-17T10:52:26.373Z,73.89
2023-01-17T10:53:35.143Z,74.42
2023-01-17T10:54:53.127Z,74.47
2023-01-17T10:55:56.548Z,73.82
2023-01-17T10:56:59.676Z,73.57
2023-01-17T10:58:03.645Z,73.74
2023-01-17T10:59:18.620Z,73.72
2023-01-17T11:00:28.007Z,73.72
2023-01-17T11:01:34.650Z,73.99
2023-01-17T11:02:45.897Z,73.93
2023-01-17T11:03:54.695Z,73.85
2023-01-17T11:05:03.600Z,73.49
2023-01-17T11:06:24.988Z,73.06
2023-01-17T11:07:29.857Z,73.01
2023-01-17T11:08:59.787Z,73.29
2023-01-17T11:10:03.013Z,73.35
2023-01-17T11:11:06.779Z,73.10
2023-01-17T11:12:40.551Z,73.27
2023-01-17T11:13:48.878Z,73.88
2023-01-17T11:15:12.373Z,73.80
2023-01-17T11:16:21.793Z,73.51
2023-01-17T11:17:27.856Z,73.34
2023-01-17T11:18:35.736Z,73.47
2023-01-17T11:19:39.546Z,73.41
2023-01-17T11:20:43.708Z,73.37
2023-01-17T11:21:56.033Z,73.14
2023-01-17T11:23:14.896Z,72.91
2023-01-17T11:24:28.358Z,72.88
2023-01-17T11:25:35.965Z,73.06
2023-01-17T11:26:47.576Z,73.30
2023-01-17T11:28:00.606Z,72.98
2023-01-17T11:29:33.051Z,72.44
2023-01-17T11:30:37.187Z,72.65
2023-01-17T11:31:40.443Z,72.43
2023-01-17T11:32:56.107Z,72.37
2023-01-17T11:34:13.706Z,72.41
2023-01-17T11:35:25.660Z,72.55
2023-01-17T11:36:30.788Z,72.75
2023-01-17T11:37:35.391Z,71.80
2023-01-17T11:38:38.596Z,71.65
2023-01-17T11:39:43.555Z,71.11
2023-01-17T11:40:48.864Z,70.61
2023-01-17T11:41:52.947Z,70.77
2023-01-17T11:43:18.749Z,70.69
2023-01-17T11:44:28.223Z,71.27
2023-01-17T11:45:33.953Z,70.99
2023-01-17T11:46:38.326Z,70.83
2023-01-17T11:47:42.036Z,71.02
2023-01-17T11:49:03.049Z,71.15
2023-01-17T11:50:24.016Z,71.44
2023-01-17T11:51:33.440Z,71.50
2023-01-17T11:52:39.147Z,71.27
2023-01-17T11:53:48.822Z,71.17
2023-01-17T11:54:54.768Z,71.46
2023-01-17T11:56:06.126Z,71.04
2023-01-17T11:57:27.769Z,70.82
2023-01-17T11:58:34.651Z,70.82
2023-01-17T11:59:44.167Z,70.71
2023-01-17T12:00:53.578Z,70.47
2023-01-17T12:02:19.891Z,70.42
2023-01-17T12:03:39.593Z,71.18
2023-01-17T12:04:58.644Z,71.35
2023-01-17T12:06:26.610Z,71.66
2023-01-17T12:07:52.907Z,71.38
2023-01-17T12:08:58.640Z,70.98
2023-01-17T12:10:19.896Z,70.66
2023-01-17T12:11:36.034Z,70.29
2023-01-17T12:13:14.307Z,70.60
2023-01-17T12:14:49.167Z,71.06
2023-01-17T12:16:34.194Z,71.44
2023-01-17T12:18:20.769Z,71.50
2023-01-17T12:20:01.179Z,71.40
2023-01-17T12:21:22.102Z,70.86
2023-01-17T12:22:49.505Z,71.24
2023-01-17T12:24:19.415Z,72.05
2023-01-17T12:25:59.724Z,71.82
2023-01-17T12:27:34.940Z,71.48
2023-01-17T12:28:55.396Z,71.63
2023-01-17T12:30:10.821Z,71.47
2023-01-17T12:31:37.263Z,71.51
2023-01-17T12:33:06.552Z,71.35
2023-01-17T12:34:27.842Z,71.91
2023-01-17T12:35:41.262Z,71.52
2023-01-17T12:37:02.340Z,71.43
2023-01-17T12:38:33.318Z,71.83
2023-01-17T12:39:42.036Z,71.59
2023-01-17T12:41:16.529Z,71.44
2023-01-17T12:42:24.251Z,71.72
2023-01-17T12:43:33.093Z,71.29
2023-01-17T12:44:41.632Z,71.27
2023-01-17T12:45:47.318Z,71.19
2023-01-17T12:46:59.201Z,71.06
2023-01-17T12:48:10.237Z,70.94
2023-01-17T12:49:39.682Z,71.09
2023-01-17T12:50:51.380Z,71.53
2023-01-17T12:52:13.212Z,71.25
2023-01-17T12:53:50.999Z,71.56
2023-01-17T12:55:00.490Z,71.59
2023-01-17T12:56:09.109Z,71.69
2023-01-17T12:57:18.953Z,71.77
2023-01-17T12:58:26.879Z,71.82
2023-01-17T12:59:40.717Z,71.88
2023-01-17T13:00:48.893Z,71.84
2023-01-17T13:01:57.774Z,72.02
2023-01-17T13:03:20.670Z,71.80
2023-01-17T13:04:58.789Z,72.02
2023-01-17T13:06:06.267Z,72.57
2023-01-17T13:07:50.689Z,72.78
2023-01-17T13:08:58.205Z,73.03
2023-01-17T13:10:40.468Z,72.68
2023-01-17T13:11:51.911Z,72.86
2023-01-17T13:13:00.622Z,72.64
2023-01-17T13:14:09.434Z,72.45
2023-01-17T13:15:20.730Z,71.85
2023-01-17T13:16:30.078Z,71.41
2023-01-17T13:17:45.194Z,71.69
2023-01-17T13:18:49.412Z,71.51
2023-01-17T13:20:06.618Z,71.13
2023-01-17T13:21:28.110Z,71.31
2023-01-17T13:22:32.718Z,71.68
2023-01-17T13:24:03.995Z,71.58
2023-01-17T13:25:26.377Z,71.83
2023-01-17T13:26:55.781Z,71.73
2023-01-17T13:28:05.815Z,72.12
2023-01-17T13:29:29.756Z,71.90
2023-01-17T13:30:43.545Z,72.02
2023-01-17T13:31:51.837Z,72.09
2023-01-17T13:33:03.699Z,71.84
2023-01-17T13:34:48.053Z,71.86
2023-01-17T13:36:03.429Z,72.07
2023-01-17T13:37:42.595Z,71.40
2023-01-17T13:39:17.154Z,71.90
2023-01-17T13:40:32.881Z,72.04
2023-01-17T13:41:36.866Z,71.90
2023-01-17T13:43:00.389Z,71.91
2023-01-17T13:44:21.746Z,71.81
2023-01-17T13:45:29.570Z,71.75
2023-01-17T13:47:11.365Z,71.71
2023-01-17T13:48:14.747Z,72.04
2023-01-17T13:49:34.014Z,71.30
2023-01-17T13:50:46.083Z,71.54
2023-01-17T13:52:12.195Z,71.69
2023-01-17T13:53:33.661Z,71.75
2023-01-17T13:55:04.179Z,71.91
2023-01-17T13:56:19.552Z,71.95
2023-01-17T13:57:27.331Z,72.02
2023-01-17T13:58:51.945Z,71.66
2023-01-17T13:59:59.787Z,71.54
2023-01-17T14:01:02.794Z,71.44
2023-01-17T14:02:31.435Z,71.45
2023-01-17T14:03:46.579Z,71.51
2023-01-17T14:05:08.174Z,71.84
2023-01-17T14:06:36.356Z,72.00
2023-01-17T14:07:43.517Z,71.76
2023-01-17T14:08:47.408Z,71.56
2023-01-17T14:09:51.113Z,71.64
2023-01-17T14:11:04.268Z,71.73
2023-01-17T14:12:31.714Z,71.97
2023-01-17T14:13:37.444Z,72.34
2023-01-17T14:14:40.557Z,72.16
2023-01-17T14:15:49.976Z,72.28
2023-01-17T14:16:53.133Z,72.46
2023-01-17T14:17:59.498Z,72.26
2023-01-17T14:19:04.442Z,72.30
2023-01-17T14:20:07.731Z,72.26
2023-01-17T14:21:25.155Z,72.08
2023-01-17T14:22:31.744Z,72.30
2023-01-17T14:23:48.901Z,72.28
2023-01-17T14:25:15.032Z,72.64
2023-01-17T14:26:23.564Z,73.07
2023-01-17T14:27:29.219Z,72.66
2023-01-17T14:28:32.816Z,72.75
2023-01-17T14:29:50.789Z,72.60
2023-01-17T14:30:56.413Z,72.80
2023-01-17T14:32:02.155Z,72.73
2023-01-17T14:33:17.334Z,72.65
2023-01-17T14:34:22.290Z,72.91
2023-01-17T14:35:30.458Z,72.54
2023-01-17T14:36:33.518Z,72.43
2023-01-17T14:37:45.500Z,72.44
2023-01-17T14:38:48.416Z,72.53
2023-01-17T14:39:51.797Z,72.29
2023-01-17T14:40:56.172Z,72.27
2023-01-17T14:41:59.183Z,72.29
2023-01-17T14:43:14.207Z,72.29
2023-01-17T14:44:17.499Z,72.41
2023-01-17T14:45:26.774Z,72.37
2023-01-17T14:46:34.251Z,72.30
2023-01-17T14:47:39.647Z,72.14
2023-01-17T14:48:43.624Z,71.96
2023-01-17T14:49:46.742Z,72.06
2023-01-17T14:50:52.104Z,71.87
2023-01-17T14:52:06.510Z,71.98
2023-01-17T14:53:12.606Z,72.17
2023-01-17T14:54:22.100Z,71.79
2023-01-17T14:55:27.708Z,71.73
2023-01-17T14:56:35.135Z,71.93
2023-01-17T14:57:38.194Z,71.83
2023-01-17T14:58:46.715Z,71.79
2023-01-17T14:59:49.852Z,72.00